sensor_id;sensor_type;location;lat;lon;timestamp;pressure;altitude;pressure_sealevel;temperature;humidity
17785;BME280;9016;53.582;10.062;2024-03-08T00:00:20;102394.97;;;4.64;75.28
17785;BME280;9016;53.582;10.062;2024-03-08T00:02:48;102388.06;;;4.49;75.70
17785;BME280;9016;53.582;10.062;2024-03-08T00:05:18;102389.81;;;4.53;76.00
17785;BME280;9016;53.582;10.062;2024-03-08T00:07:46;102386.28;;;4.53;76.00
17785;BME280;9016;53.582;10.062;2024-03-08T00:10:14;102388.03;;;4.52;76.32
17785;BME280;9016;53.582;10.062;2024-03-08T00:12:44;102379.31;;;4.46;76.64
17785;BME280;9016;53.582;10.062;2024-03-08T00:15:14;102386.28;;;4.53;76.14
17785;BME280;9016;53.582;10.062;2024-03-08T00:17:46;102378.28;;;4.62;75.91
17785;BME280;9016;53.582;10.062;2024-03-08T00:20:15;102376.63;;;4.52;75.80
17785;BME280;9016;53.582;10.062;2024-03-08T00:22:46;102379.16;;;4.59;75.98
17785;BME280;9016;53.582;10.062;2024-03-08T00:25:14;102374.03;;;4.43;75.80
17785;BME280;9016;53.582;10.062;2024-03-08T00:27:43;102380.31;;;4.33;76.65
17785;BME280;9016;53.582;10.062;2024-03-08T00:30:11;102374.13;;;4.37;77.09
17785;BME280;9016;53.582;10.062;2024-03-08T00:32:41;102382.03;;;4.34;77.21
17785;BME280;9016;53.582;10.062;2024-03-08T00:35:11;102376.75;;;4.38;76.21
17785;BME280;9016;53.582;10.062;2024-03-08T00:37:39;102377.63;;;4.39;76.72
17785;BME280;9016;53.582;10.062;2024-03-08T00:40:09;102380.38;;;4.25;76.83
17785;BME280;9016;53.582;10.062;2024-03-08T00:42:37;102369.84;;;4.22;77.16
17785;BME280;9016;53.582;10.062;2024-03-08T00:45:07;102375.13;;;4.19;77.97
17785;BME280;9016;53.582;10.062;2024-03-08T00:47:57;102378.56;;;4.29;77.50
17785;BME280;9016;53.582;10.062;2024-03-08T00:50:27;102371.69;;;4.13;77.95
17785;BME280;9016;53.582;10.062;2024-03-08T00:52:55;102371.69;;;4.11;78.26
17785;BME280;9016;53.582;10.062;2024-03-08T00:55:23;102373.44;;;4.12;78.20
17785;BME280;9016;53.582;10.062;2024-03-08T00:57:51;102367.34;;;4.04;78.64
17785;BME280;9016;53.582;10.062;2024-03-08T01:00:20;102370.84;;;4.09;78.22
17785;BME280;9016;53.582;10.062;2024-03-08T01:02:48;102369.09;;;4.05;78.30
17785;BME280;9016;53.582;10.062;2024-03-08T01:05:16;102360.34;;;4.01;78.69
17785;BME280;9016;53.582;10.062;2024-03-08T01:07:46;102359.41;;;4.04;78.32
17785;BME280;9016;53.582;10.062;2024-03-08T01:10:14;102358.59;;;4.02;78.48
17785;BME280;9016;53.582;10.062;2024-03-08T01:12:42;102360.44;;;3.91;79.17
17785;BME280;9016;53.582;10.062;2024-03-08T01:15:11;102363.97;;;3.84;79.38
17785;BME280;9016;53.582;10.062;2024-03-08T01:17:39;102344.53;;;3.97;79.41
17785;BME280;9016;53.582;10.062;2024-03-08T01:20:08;102350.69;;;3.97;79.25
17785;BME280;9016;53.582;10.062;2024-03-08T01:22:38;102342.00;;;3.82;79.30
17785;BME280;9016;53.582;10.062;2024-03-08T01:25:08;102340.28;;;3.81;80.04
17785;BME280;9016;53.582;10.062;2024-03-08T01:27:36;102332.31;;;3.87;79.92
17785;BME280;9016;53.582;10.062;2024-03-08T01:30:05;102327.91;;;3.87;79.47
17785;BME280;9016;53.582;10.062;2024-03-08T01:32:34;102329.72;;;3.82;79.02
17785;BME280;9016;53.582;10.062;2024-03-08T01:35:03;102327.13;;;3.78;79.69
17785;BME280;9016;53.582;10.062;2024-03-08T01:37:31;102318.34;;;3.73;80.00
17785;BME280;9016;53.582;10.062;2024-03-08T01:39:59;102312.13;;;3.84;80.03
17785;BME280;9016;53.582;10.062;2024-03-08T01:42:28;102315.59;;;3.92;79.50
17785;BME280;9016;53.582;10.062;2024-03-08T01:44:56;102301.47;;;3.98;78.57
17785;BME280;9016;53.582;10.062;2024-03-08T01:47:25;102311.22;;;3.84;79.33
17785;BME280;9016;53.582;10.062;2024-03-08T01:49:53;102298.06;;;3.82;79.44
17785;BME280;9016;53.582;10.062;2024-03-08T01:52:21;102300.72;;;3.81;80.12
17785;BME280;9016;53.582;10.062;2024-03-08T01:54:50;102295.41;;;3.84;79.56
17785;BME280;9016;53.582;10.062;2024-03-08T01:57:18;102292.78;;;3.85;78.85
17785;BME280;9016;53.582;10.062;2024-03-08T02:03:11;102288.47;;;3.71;79.61
17785;BME280;9016;53.582;10.062;2024-03-08T02:05:40;102284.13;;;3.65;80.11
17785;BME280;9016;53.582;10.062;2024-03-08T02:08:09;102282.31;;;3.78;79.63
17785;BME280;9016;53.582;10.062;2024-03-08T02:10:41;102280.59;;;3.72;79.55
17785;BME280;9016;53.582;10.062;2024-03-08T02:13:09;102277.97;;;3.68;80.09
17785;BME280;9016;53.582;10.062;2024-03-08T02:15:51;102282.38;;;3.69;80.22
17785;BME280;9016;53.582;10.062;2024-03-08T02:18:21;102279.78;;;3.60;79.71
17785;BME280;9016;53.582;10.062;2024-03-08T02:20:51;102282.38;;;3.67;80.38
17785;BME280;9016;53.582;10.062;2024-03-08T02:23:19;102276.16;;;3.76;80.23
17785;BME280;9016;53.582;10.062;2024-03-08T02:25:48;102276.31;;;3.58;81.06
17785;BME280;9016;53.582;10.062;2024-03-08T02:28:16;102264.91;;;3.56;81.39
17785;BME280;9016;53.582;10.062;2024-03-08T02:30:45;102270.13;;;3.63;80.41
17785;BME280;9016;53.582;10.062;2024-03-08T02:33:15;102271.81;;;3.70;79.95
17785;BME280;9016;53.582;10.062;2024-03-08T02:35:44;102270.13;;;3.63;80.90
17785;BME280;9016;53.582;10.062;2024-03-08T02:38:16;102271.88;;;3.63;80.86
17785;BME280;9016;53.582;10.062;2024-03-08T02:40:46;102264.81;;;3.66;80.44
17785;BME280;9016;53.582;10.062;2024-03-08T02:43:15;102273.59;;;3.67;79.59
17785;BME280;9016;53.582;10.062;2024-03-08T02:45:44;102272.81;;;3.53;80.38
17785;BME280;9016;53.582;10.062;2024-03-08T02:48:13;102267.63;;;3.42;81.14
17785;BME280;9016;53.582;10.062;2024-03-08T02:50:43;102266.72;;;3.43;81.82
17785;BME280;9016;53.582;10.062;2024-03-08T02:53:12;102269.34;;;3.48;81.66
17785;BME280;9016;53.582;10.062;2024-03-08T02:55:42;102260.53;;;3.53;80.74
17785;BME280;9016;53.582;10.062;2024-03-08T02:58:10;102254.38;;;3.51;81.55
17785;BME280;9016;53.582;10.062;2024-03-08T03:00:38;102248.28;;;3.46;81.55
17785;BME280;9016;53.582;10.062;2024-03-08T03:03:07;102258.84;;;3.45;81.25
17785;BME280;9016;53.582;10.062;2024-03-08T03:05:35;102248.28;;;3.42;82.02
17785;BME280;9016;53.582;10.062;2024-03-08T03:08:04;102257.97;;;3.40;81.55
17785;BME280;9016;53.582;10.062;2024-03-08T03:10:36;102251.78;;;3.48;81.72
17785;BME280;9016;53.582;10.062;2024-03-08T03:13:06;102253.56;;;3.42;81.60
17785;BME280;9016;53.582;10.062;2024-03-08T03:15:35;102243.00;;;3.48;81.86
17785;BME280;9016;53.582;10.062;2024-03-08T03:18:04;102252.63;;;3.49;81.14
17785;BME280;9016;53.582;10.062;2024-03-08T03:20:35;102244.78;;;3.40;81.40
17785;BME280;9016;53.582;10.062;2024-03-08T03:23:08;102241.28;;;3.41;81.81
17785;BME280;9016;53.582;10.062;2024-03-08T03:25:36;102248.38;;;3.30;82.48
17785;BME280;9016;53.582;10.062;2024-03-08T03:28:08;102253.66;;;3.30;82.51
17785;BME280;9016;53.582;10.062;2024-03-08T03:30:38;102243.06;;;3.36;82.29
17785;BME280;9016;53.582;10.062;2024-03-08T03:33:09;102240.44;;;3.34;81.82
17785;BME280;9016;53.582;10.062;2024-03-08T03:35:39;102245.72;;;3.37;81.98
17785;BME280;9016;53.582;10.062;2024-03-08T03:38:08;102245.78;;;3.25;82.11
17785;BME280;9016;53.582;10.062;2024-03-08T03:40:38;102241.34;;;3.32;82.15
17785;BME280;9016;53.582;10.062;2024-03-08T03:43:08;102241.41;;;3.23;81.96
17785;BME280;9016;53.582;10.062;2024-03-08T03:45:39;102237.03;;;3.16;82.30
17785;BME280;9016;53.582;10.062;2024-03-08T03:48:09;102244.97;;;3.13;82.93
17785;BME280;9016;53.582;10.062;2024-03-08T03:50:38;102234.41;;;3.16;83.42
17785;BME280;9016;53.582;10.062;2024-03-08T03:53:07;102230.91;;;3.17;82.75
17785;BME280;9016;53.582;10.062;2024-03-08T03:55:37;102228.28;;;3.14;83.73
17785;BME280;9016;53.582;10.062;2024-03-08T03:58:08;102231.84;;;3.10;82.62
17785;BME280;9016;53.582;10.062;2024-03-08T04:00:38;102227.38;;;3.18;83.00
17785;BME280;9016;53.582;10.062;2024-03-08T04:03:06;102231.91;;;3.00;82.19
17785;BME280;9016;53.582;10.062;2024-03-08T04:05:35;102232.78;;;2.93;83.03
17785;BME280;9016;53.582;10.062;2024-03-08T04:08:04;102241.56;;;2.98;83.28
17785;BME280;9016;53.582;10.062;2024-03-08T04:10:32;102235.41;;;2.99;84.28
17785;BME280;9016;53.582;10.062;2024-03-08T04:13:00;102236.25;;;3.01;82.88
17785;BME280;9016;53.582;10.062;2024-03-08T04:15:30;102229.22;;;3.03;83.73
17785;BME280;9016;53.582;10.062;2024-03-08T04:17:58;102234.44;;;3.13;83.52
17785;BME280;9016;53.582;10.062;2024-03-08T04:20:27;102235.34;;;3.09;82.84
17785;BME280;9016;53.582;10.062;2024-03-08T04:22:55;102234.53;;;3.00;83.39
17785;BME280;9016;53.582;10.062;2024-03-08T04:25:23;102231.94;;;2.90;82.96
17785;BME280;9016;53.582;10.062;2024-03-08T04:27:51;102238.97;;;2.91;84.11
17785;BME280;9016;53.582;10.062;2024-03-08T04:30:19;102232.84;;;2.87;83.73
17785;BME280;9016;53.582;10.062;2024-03-08T04:32:49;102221.41;;;2.93;83.70
17785;BME280;9016;53.582;10.062;2024-03-08T04:35:17;102219.63;;;2.92;83.77
17785;BME280;9016;53.582;10.062;2024-03-08T04:37:47;102219.63;;;2.93;84.59
17785;BME280;9016;53.582;10.062;2024-03-08T04:40:15;102227.56;;;2.90;84.03
17785;BME280;9016;53.582;10.062;2024-03-08T04:42:43;102221.47;;;2.79;84.76
17785;BME280;9016;53.582;10.062;2024-03-08T04:45:11;102223.19;;;2.80;84.78
17785;BME280;9016;53.582;10.062;2024-03-08T04:47:39;102217.09;;;2.80;85.08
17785;BME280;9016;53.582;10.062;2024-03-08T04:50:10;102219.69;;;2.87;84.31
17785;BME280;9016;53.582;10.062;2024-03-08T04:52:38;102204.72;;;2.92;83.78
17785;BME280;9016;53.582;10.062;2024-03-08T04:55:06;102208.25;;;2.93;84.78
17785;BME280;9016;53.582;10.062;2024-03-08T04:57:34;102204.75;;;2.85;84.09
17785;BME280;9016;53.582;10.062;2024-03-08T05:00:02;102203.00;;;2.82;84.88
17785;BME280;9016;53.582;10.062;2024-03-08T05:02:35;102195.13;;;2.79;84.84
17785;BME280;9016;53.582;10.062;2024-03-08T05:05:03;102196.84;;;2.91;85.49
17785;BME280;9016;53.582;10.062;2024-03-08T05:07:34;102195.97;;;2.84;84.07
17785;BME280;9016;53.582;10.062;2024-03-08T05:10:02;102207.53;;;2.58;84.14
17785;BME280;9016;53.582;10.062;2024-03-08T05:12:30;102205.75;;;2.67;85.15
17785;BME280;9016;53.582;10.062;2024-03-08T05:14:58;102203.09;;;2.69;84.87
17785;BME280;9016;53.582;10.062;2024-03-08T05:17:27;102202.25;;;2.59;84.65
17785;BME280;9016;53.582;10.062;2024-03-08T05:19:57;102196.97;;;2.68;85.86
17785;BME280;9016;53.582;10.062;2024-03-08T05:22:25;102194.31;;;2.70;85.02
17785;BME280;9016;53.582;10.062;2024-03-08T05:24:55;102188.13;;;2.75;84.61
17785;BME280;9016;53.582;10.062;2024-03-08T05:27:23;102195.19;;;2.70;85.23
17785;BME280;9016;53.582;10.062;2024-03-08T05:29:51;102186.38;;;2.77;84.56
17785;BME280;9016;53.582;10.062;2024-03-08T05:32:19;102189.03;;;2.76;85.14
17785;BME280;9016;53.582;10.062;2024-03-08T05:34:47;102197.81;;;2.70;84.36
17785;BME280;9016;53.582;10.062;2024-03-08T05:37:15;102190.03;;;2.48;85.77
17785;BME280;9016;53.582;10.062;2024-03-08T05:39:43;102190.88;;;2.51;86.23
17785;BME280;9016;53.582;10.062;2024-03-08T05:42:12;102188.22;;;2.57;86.19
17785;BME280;9016;53.582;10.062;2024-03-08T05:44:40;102190.00;;;2.54;85.40
17785;BME280;9016;53.582;10.062;2024-03-08T05:47:08;102188.25;;;2.50;86.62
17785;BME280;9016;53.582;10.062;2024-03-08T05:49:37;102184.75;;;2.48;86.52
17785;BME280;9016;53.582;10.062;2024-03-08T05:52:06;102186.50;;;2.53;86.28
17785;BME280;9016;53.582;10.062;2024-03-08T05:54:34;102187.34;;;2.58;86.30
17785;BME280;9016;53.582;10.062;2024-03-08T05:57:02;102183.00;;;2.54;86.18
17785;BME280;9016;53.582;10.062;2024-03-08T05:59:31;102186.47;;;2.59;86.10
17785;BME280;9016;53.582;10.062;2024-03-08T06:01:59;102183.81;;;2.62;85.82
17785;BME280;9016;53.582;10.062;2024-03-08T06:04:27;102185.59;;;2.57;85.84
17785;BME280;9016;53.582;10.062;2024-03-08T06:06:55;102190.88;;;2.56;85.76
17785;BME280;9016;53.582;10.062;2024-03-08T06:09:24;102187.34;;;2.58;86.60
17785;BME280;9016;53.582;10.062;2024-03-08T06:11:53;102193.47;;;2.65;85.52
17785;BME280;9016;53.582;10.062;2024-03-08T06:14:21;102189.09;;;2.65;86.20
17785;BME280;9016;53.582;10.062;2024-03-08T06:16:51;102185.63;;;2.50;85.62
17785;BME280;9016;53.582;10.062;2024-03-08T06:19:19;102197.91;;;2.52;86.18
17785;BME280;9016;53.582;10.062;2024-03-08T06:21:47;102191.72;;;2.61;86.57
17785;BME280;9016;53.582;10.062;2024-03-08T06:24:15;102193.44;;;2.69;85.44
17785;BME280;9016;53.582;10.062;2024-03-08T06:26:44;102188.13;;;2.75;85.72
17785;BME280;9016;53.582;10.062;2024-03-08T06:29:12;102195.13;;;2.84;84.50
17785;BME280;9016;53.582;10.062;2024-03-08T06:31:42;102195.16;;;2.76;84.44
17785;BME280;9016;53.582;10.062;2024-03-08T06:34:11;102187.28;;;2.76;84.61
17785;BME280;9016;53.582;10.062;2024-03-08T06:36:39;102193.34;;;2.87;84.99
17785;BME280;9016;53.582;10.062;2024-03-08T06:39:07;102182.81;;;2.89;83.40
17785;BME280;9016;53.582;10.062;2024-03-08T06:41:37;102181.94;;;2.82;83.98
17785;BME280;9016;53.582;10.062;2024-03-08T06:44:05;102188.06;;;2.86;84.03
17785;BME280;9016;53.582;10.062;2024-03-08T06:46:34;102175.78;;;2.86;83.50
17785;BME280;9016;53.582;10.062;2024-03-08T06:49:02;102179.25;;;2.96;82.50
17785;BME280;9016;53.582;10.062;2024-03-08T06:51:32;102174.81;;;3.02;81.97
17785;BME280;9016;53.582;10.062;2024-03-08T06:54:00;102174.75;;;3.15;82.38
17785;BME280;9016;53.582;10.062;2024-03-08T06:56:28;102176.50;;;3.14;80.81
17785;BME280;9016;53.582;10.062;2024-03-08T06:58:56;102171.25;;;3.11;81.64
17785;BME280;9016;53.582;10.062;2024-03-08T07:01:24;102171.31;;;3.03;81.69
17785;BME280;9016;53.582;10.062;2024-03-08T07:03:52;102177.38;;;3.10;81.87
17785;BME280;9016;53.582;10.062;2024-03-08T07:06:23;102181.75;;;3.19;81.13
17785;BME280;9016;53.582;10.062;2024-03-08T07:08:53;102174.66;;;3.25;80.09
17785;BME280;9016;53.582;10.062;2024-03-08T07:11:21;102176.38;;;3.34;79.23
17785;BME280;9016;53.582;10.062;2024-03-08T07:13:49;102179.81;;;3.40;79.15
17785;BME280;9016;53.582;10.062;2024-03-08T07:16:17;102178.88;;;3.46;79.39
17785;BME280;9016;53.582;10.062;2024-03-08T07:18:45;102182.41;;;3.45;78.82
17785;BME280;9016;53.582;10.062;2024-03-08T07:21:13;102185.84;;;3.56;78.00
17785;BME280;9016;53.582;10.062;2024-03-08T07:23:41;102177.00;;;3.61;77.96
17785;BME280;9016;53.582;10.062;2024-03-08T07:26:31;102176.94;;;3.69;77.72
17785;BME280;9016;53.582;10.062;2024-03-08T07:28:59;102172.59;;;3.62;77.66
17785;BME280;9016;53.582;10.062;2024-03-08T07:31:27;102178.66;;;3.74;77.53
17785;BME280;9016;53.582;10.062;2024-03-08T07:34:11;102170.75;;;3.74;76.59
17785;BME280;9016;53.582;10.062;2024-03-08T07:36:39;102163.47;;;3.96;76.39
17785;BME280;9016;53.582;10.062;2024-03-08T07:39:07;102169.53;;;4.06;76.56
17785;BME280;9016;53.582;10.062;2024-03-08T07:41:39;102166.81;;;4.10;75.90
17785;BME280;9016;53.582;10.062;2024-03-08T07:44:07;102172.25;;;3.98;75.24
17785;BME280;9016;53.582;10.062;2024-03-08T07:46:35;102178.19;;;4.15;75.35
17785;BME280;9016;53.582;10.062;2024-03-08T07:49:05;102173.94;;;4.05;74.69
17785;BME280;9016;53.582;10.062;2024-03-08T07:51:33;102178.16;;;4.20;73.90
17785;BME280;9016;53.582;10.062;2024-03-08T07:54:01;102172.13;;;4.09;74.85
17785;BME280;9016;53.582;10.062;2024-03-08T07:56:31;102165.97;;;4.08;74.08
17785;BME280;9016;53.582;10.062;2024-03-08T07:59:04;102163.47;;;3.96;74.42
17785;BME280;9016;53.582;10.062;2024-03-08T08:01:32;102162.53;;;4.03;74.41
17785;BME280;9016;53.582;10.062;2024-03-08T08:04:01;102166.84;;;4.09;74.25
17785;BME280;9016;53.582;10.062;2024-03-08T08:06:29;102169.22;;;4.33;74.02
17785;BME280;9016;53.582;10.062;2024-03-08T08:08:58;102166.50;;;4.39;72.18
17785;BME280;9016;53.582;10.062;2024-03-08T08:11:27;102169.16;;;4.39;72.36
17785;BME280;9016;53.582;10.062;2024-03-08T08:13:55;102169.16;;;4.39;72.88
17785;BME280;9016;53.582;10.062;2024-03-08T08:16:25;102164.66;;;4.45;73.19
17785;BME280;9016;53.582;10.062;2024-03-08T08:18:53;102160.91;;;4.61;73.18
17785;BME280;9016;53.582;10.062;2024-03-08T08:21:21;102158.19;;;4.69;72.09
17785;BME280;9016;53.582;10.062;2024-03-08T08:23:51;102157.91;;;4.88;71.92
17785;BME280;9016;53.582;10.062;2024-03-08T08:26:19;102151.75;;;4.88;70.87
17785;BME280;9016;53.582;10.062;2024-03-08T08:28:47;102162.44;;;4.80;71.26
17785;BME280;9016;53.582;10.062;2024-03-08T08:31:16;102152.81;;;4.75;71.78
17785;BME280;9016;53.582;10.062;2024-03-08T08:33:45;102159.66;;;4.89;72.01
17785;BME280;9016;53.582;10.062;2024-03-08T08:36:16;102149.03;;;4.92;70.34
17785;BME280;9016;53.582;10.062;2024-03-08T08:38:45;102148.00;;;5.02;70.01
17785;BME280;9016;53.582;10.062;2024-03-08T08:41:13;102164.72;;;5.04;70.24
17785;BME280;9016;53.582;10.062;2024-03-08T08:43:42;102162.16;;;4.98;70.49
17785;BME280;9016;53.582;10.062;2024-03-08T08:46:28;102141.59;;;5.20;70.31
17785;BME280;9016;53.582;10.062;2024-03-08T08:48:57;102145.28;;;5.09;69.97
17785;BME280;9016;53.582;10.062;2024-03-08T08:51:25;102146.06;;;5.15;69.87
17785;BME280;9016;53.582;10.062;2024-03-08T08:53:54;102147.56;;;5.30;69.27
17785;BME280;9016;53.582;10.062;2024-03-08T08:56:22;102150.06;;;5.39;68.80
17785;BME280;9016;53.582;10.062;2024-03-08T08:58:52;102141.13;;;5.47;68.98
17785;BME280;9016;53.582;10.062;2024-03-08T09:01:21;102140.34;;;5.41;68.54
17785;BME280;9016;53.582;10.062;2024-03-08T09:03:49;102146.41;;;5.47;67.75
17785;BME280;9016;53.582;10.062;2024-03-08T09:06:20;102136.44;;;5.64;67.60
17785;BME280;9016;53.582;10.062;2024-03-08T09:08:47;102138.09;;;5.68;67.37
17785;BME280;9016;53.582;10.062;2024-03-08T09:11:15;102128.50;;;5.64;66.96
17785;BME280;9016;53.582;10.062;2024-03-08T09:13:44;102130.16;;;5.68;67.05
17785;BME280;9016;53.582;10.062;2024-03-08T09:16:13;102129.19;;;5.74;68.08
17785;BME280;9016;53.582;10.062;2024-03-08T09:18:41;102115.38;;;6.06;68.07
17785;BME280;9016;53.582;10.062;2024-03-08T09:21:09;102105.88;;;6.38;66.18
17785;BME280;9016;53.582;10.062;2024-03-08T09:23:39;102105.16;;;7.07;66.28
17785;BME280;9016;53.582;10.062;2024-03-08T09:26:08;102099.03;;;7.73;60.36
17785;BME280;9016;53.582;10.062;2024-03-08T09:28:48;102089.41;;;8.01;60.38
17785;BME280;9016;53.582;10.062;2024-03-08T09:31:16;102095.22;;;7.83;59.43
17785;BME280;9016;53.582;10.062;2024-03-08T09:33:44;102089.34;;;8.03;59.46
17785;BME280;9016;53.582;10.062;2024-03-08T09:36:12;102085.47;;;7.84;58.62
17785;BME280;9016;53.582;10.062;2024-03-08T09:38:42;102084.25;;;7.65;59.63
17785;BME280;9016;53.582;10.062;2024-03-08T09:41:10;102063.78;;;7.36;60.61
17785;BME280;9016;53.582;10.062;2024-03-08T09:43:39;102078.66;;;7.42;60.14
17785;BME280;9016;53.582;10.062;2024-03-08T09:46:07;102069.28;;;7.29;60.10
17785;BME280;9016;53.582;10.062;2024-03-08T09:48:35;102068.81;;;7.47;60.12
17785;BME280;9016;53.582;10.062;2024-03-08T09:51:04;102063.31;;;7.54;59.07
17785;BME280;9016;53.582;10.062;2024-03-08T09:53:32;102063.19;;;7.25;59.15
17785;BME280;9016;53.582;10.062;2024-03-08T09:56:02;102059.13;;;7.11;58.93
17785;BME280;9016;53.582;10.062;2024-03-08T09:58:31;102051.31;;;7.06;59.01
17785;BME280;9016;53.582;10.062;2024-03-08T10:01:18;102050.25;;;7.13;60.25
17785;BME280;9016;53.582;10.062;2024-03-08T10:03:47;102054.69;;;7.13;59.77
17785;BME280;9016;53.582;10.062;2024-03-08T10:06:15;102037.84;;;7.15;60.34
17785;BME280;9016;53.582;10.062;2024-03-08T10:08:43;102041.91;;;7.28;59.46
17785;BME280;9016;53.582;10.062;2024-03-08T10:11:13;102035.56;;;7.66;59.09
17785;BME280;9016;53.582;10.062;2024-03-08T10:13:41;102027.34;;;7.75;58.67
17785;BME280;9016;53.582;10.062;2024-03-08T10:16:09;102020.09;;;7.81;56.99
17785;BME280;9016;53.582;10.062;2024-03-08T10:18:37;102039.00;;;7.71;55.64
17785;BME280;9016;53.582;10.062;2024-03-08T10:21:06;102022.13;;;7.72;55.38
17785;BME280;9016;53.582;10.062;2024-03-08T10:23:36;102007.66;;;7.83;57.29
17785;BME280;9016;53.582;10.062;2024-03-08T10:26:13;102024.03;;;7.97;57.38
17785;BME280;9016;53.582;10.062;2024-03-08T10:28:42;102005.78;;;7.87;55.95
17785;BME280;9016;53.582;10.062;2024-03-08T10:31:12;101997.56;;;8.25;54.21
17785;BME280;9016;53.582;10.062;2024-03-08T10:33:44;101999.44;;;7.92;52.59
17785;BME280;9016;53.582;10.062;2024-03-08T10:36:14;102008.66;;;7.79;52.79
17785;BME280;9016;53.582;10.062;2024-03-08T10:38:43;101995.25;;;7.84;52.94
17785;BME280;9016;53.582;10.062;2024-03-08T10:41:16;101993.03;;;7.99;53.44
17785;BME280;9016;53.582;10.062;2024-03-08T10:44:02;101985.31;;;8.20;52.62
17785;BME280;9016;53.582;10.062;2024-03-08T10:46:44;101978.53;;;8.11;51.46
17785;BME280;9016;53.582;10.062;2024-03-08T10:49:24;101979.06;;;8.22;51.95
17785;BME280;9016;53.582;10.062;2024-03-08T10:51:53;101976.41;;;8.22;51.46
17785;BME280;9016;53.582;10.062;2024-03-08T10:54:22;101969.69;;;8.11;51.22
17785;BME280;9016;53.582;10.062;2024-03-08T10:56:53;101974.97;;;8.40;51.57
17785;BME280;9016;53.582;10.062;2024-03-08T10:59:22;101947.25;;;8.21;50.87
17785;BME280;9016;53.582;10.062;2024-03-08T11:01:50;101957.00;;;8.20;50.92
17785;BME280;9016;53.582;10.062;2024-03-08T11:04:18;101965.84;;;8.19;50.33
17785;BME280;9016;53.582;10.062;2024-03-08T11:06:51;101958.00;;;8.16;51.31
17785;BME280;9016;53.582;10.062;2024-03-08T11:09:30;101945.41;;;8.24;51.39
17785;BME280;9016;53.582;10.062;2024-03-08T11:12:25;101949.41;;;8.37;51.35
17785;BME280;9016;53.582;10.062;2024-03-08T11:14:58;101950.91;;;8.17;50.41
17785;BME280;9016;53.582;10.062;2024-03-08T11:17:44;101933.53;;;8.07;51.19
17785;BME280;9016;53.582;10.062;2024-03-08T11:20:13;101921.94;;;8.09;50.05
17785;BME280;9016;53.582;10.062;2024-03-08T11:22:48;101938.50;;;8.17;50.52
17785;BME280;9016;53.582;10.062;2024-03-08T11:25:37;101931.22;;;8.24;51.03
17785;BME280;9016;53.582;10.062;2024-03-08T11:28:13;101922.84;;;8.37;50.13
17785;BME280;9016;53.582;10.062;2024-03-08T11:30:47;101932.63;;;8.63;50.26
17785;BME280;9016;53.582;10.062;2024-03-08T11:33:16;101903.72;;;8.54;49.34
17785;BME280;9016;53.582;10.062;2024-03-08T11:35:45;101917.00;;;8.52;49.17
17785;BME280;9016;53.582;10.062;2024-03-08T11:38:13;101904.88;;;8.45;47.87
17785;BME280;9016;53.582;10.062;2024-03-08T11:40:46;101889.28;;;8.61;46.94
17785;BME280;9016;53.582;10.062;2024-03-08T11:43:17;101889.94;;;8.67;46.77
17785;BME280;9016;53.582;10.062;2024-03-08T11:45:46;101887.13;;;8.72;47.49
17785;BME280;9016;53.582;10.062;2024-03-08T11:48:14;101896.56;;;8.80;48.58
17785;BME280;9016;53.582;10.062;2024-03-08T11:50:42;101897.25;;;8.87;47.47
17785;BME280;9016;53.582;10.062;2024-03-08T11:53:11;101885.16;;;9.03;48.00
17785;BME280;9016;53.582;10.062;2024-03-08T11:55:40;101901.41;;;8.94;47.31
17785;BME280;9016;53.582;10.062;2024-03-08T11:58:09;101886.50;;;8.90;47.04
17785;BME280;9016;53.582;10.062;2024-03-08T12:00:41;101879.97;;;8.98;47.04
17785;BME280;9016;53.582;10.062;2024-03-08T12:03:09;101880.22;;;8.92;46.73
17785;BME280;9016;53.582;10.062;2024-03-08T12:05:37;101878.97;;;8.78;46.24
17785;BME280;9016;53.582;10.062;2024-03-08T12:08:06;101883.97;;;8.87;47.03
17785;BME280;9016;53.582;10.062;2024-03-08T12:10:40;101873.31;;;8.87;47.10
17785;BME280;9016;53.582;10.062;2024-03-08T12:13:08;101866.81;;;8.95;47.08
17785;BME280;9016;53.582;10.062;2024-03-08T12:15:41;101871.31;;;9.18;47.88
17785;BME280;9016;53.582;10.062;2024-03-08T12:18:11;101853.22;;;9.28;48.07
17785;BME280;9016;53.582;10.062;2024-03-08T12:20:39;101848.19;;;9.20;47.36
17785;BME280;9016;53.582;10.062;2024-03-08T12:23:14;101838.28;;;9.24;47.50
17785;BME280;9016;53.582;10.062;2024-03-08T12:25:43;101840.97;;;9.24;46.37
17785;BME280;9016;53.582;10.062;2024-03-08T12:28:12;101835.34;;;9.31;45.91
17785;BME280;9016;53.582;10.062;2024-03-08T12:30:49;101828.69;;;9.20;45.56
17785;BME280;9016;53.582;10.062;2024-03-08T12:33:20;101815.88;;;9.31;46.02
17785;BME280;9016;53.582;10.062;2024-03-08T12:35:53;101817.84;;;9.26;45.99
17785;BME280;9016;53.582;10.062;2024-03-08T12:38:23;101808.22;;;9.22;46.62
17785;BME280;9016;53.582;10.062;2024-03-08T12:40:55;101808.91;;;9.27;46.26
17785;BME280;9016;53.582;10.062;2024-03-08T12:43:25;101814.28;;;9.25;45.78
17785;BME280;9016;53.582;10.062;2024-03-08T12:45:54;101801.69;;;9.07;45.18
17785;BME280;9016;53.582;10.062;2024-03-08T12:48:22;101802.94;;;8.97;44.99
17785;BME280;9016;53.582;10.062;2024-03-08T12:50:50;101789.31;;;9.29;45.00
17785;BME280;9016;53.582;10.062;2024-03-08T12:53:18;101785.72;;;9.30;44.64
17785;BME280;9016;53.582;10.062;2024-03-08T12:55:46;101779.94;;;9.42;44.18
17785;BME280;9016;53.582;10.062;2024-03-08T12:58:14;101780.31;;;9.33;43.92
17785;BME280;9016;53.582;10.062;2024-03-08T13:00:43;101786.59;;;9.31;45.20
17785;BME280;9016;53.582;10.062;2024-03-08T13:03:13;101772.25;;;9.35;45.71
17785;BME280;9016;53.582;10.062;2024-03-08T13:05:41;101765.34;;;9.52;45.84
17785;BME280;9016;53.582;10.062;2024-03-08T13:08:09;101772.72;;;9.67;44.79
17785;BME280;9016;53.582;10.062;2024-03-08T13:10:40;101760.59;;;9.60;44.23
17785;BME280;9016;53.582;10.062;2024-03-08T13:13:11;101764.88;;;9.64;43.28
17785;BME280;9016;53.582;10.062;2024-03-08T13:15:40;101754.53;;;9.57;43.23